createdAt,value
2023-05-24T00:00:13.231Z,9.86
2023-05-24T00:02:43.145Z,9.86
2023-05-24T00:05:11.055Z,9.87
2023-05-24T00:07:38.359Z,9.88
2023-05-24T00:10:09.206Z,9.87
2023-05-24T00:12:36.065Z,9.84
2023-05-24T00:15:02.785Z,9.87
2023-05-24T00:17:30.409Z,9.83
2023-05-24T00:19:57.053Z,9.91
2023-05-24T00:22:23.692Z,9.84
2023-05-24T00:25:02.549Z,9.69
2023-05-24T00:27:29.074Z,9.70
2023-05-24T00:29:55.752Z,9.81
2023-05-24T00:32:22.494Z,9.87
2023-05-24T00:34:49.124Z,9.88
2023-05-24T00:37:15.824Z,9.81
2023-05-24T00:39:42.370Z,9.71
2023-05-24T00:42:09.014Z,9.61
2023-05-24T00:44:35.845Z,9.52
2023-05-24T00:47:08.853Z,9.42
2023-05-24T00:49:35.582Z,9.36
2023-05-24T00:52:02.422Z,9.32
2023-05-24T00:54:29.688Z,9.33
2023-05-24T00:59:43.631Z,9.47
2023-05-24T01:02:10.519Z,9.50
2023-05-24T01:04:38.290Z,9.35
2023-05-24T01:07:19.030Z,9.25
2023-05-24T01:10:14.577Z,9.25
2023-05-24T01:12:59.801Z,9.24
2023-05-24T01:15:47.633Z,9.29
2023-05-24T01:18:22.146Z,9.27
2023-05-24T01:21:11.157Z,9.13
2023-05-24T01:23:49.706Z,8.96
2023-05-24T01:26:40.208Z,8.93
2023-05-24T01:38:41.796Z,8.91
2023-05-24T01:41:17.718Z,8.95
2023-05-24T01:46:38.829Z,8.91
2023-05-24T01:49:27.252Z,8.89
2023-05-24T01:52:07.952Z,8.88
2023-05-24T01:54:39.872Z,8.81
2023-05-24T01:57:09.253Z,8.82
2023-05-24T02:07:03.637Z,9.00
2023-05-24T02:09:30.181Z,9.10
2023-05-24T02:11:56.735Z,9.05
2023-05-24T02:14:24.496Z,9.11
2023-05-24T02:16:51.379Z,9.19
2023-05-24T02:19:21.491Z,9.17
2023-05-24T02:21:48.184Z,9.16
2023-05-24T02:24:15.096Z,9.10
2023-05-24T02:26:41.765Z,9.08
2023-05-24T02:29:08.309Z,9.10
2023-05-24T02:31:34.885Z,9.13
2023-05-24T02:34:01.690Z,9.08
2023-05-24T02:36:28.437Z,9.12
2023-05-24T02:38:55.114Z,9.15
2023-05-24T02:41:22.262Z,9.19
2023-05-24T02:43:48.814Z,9.11
2023-05-24T02:46:18.089Z,9.05
2023-05-24T02:48:44.638Z,8.99
2023-05-24T02:51:23.537Z,8.96
2023-05-24T02:53:53.053Z,8.92
2023-05-24T02:56:20.312Z,8.90
2023-05-24T02:58:46.811Z,8.90
2023-05-24T03:01:13.608Z,8.93
2023-05-24T03:03:46.613Z,8.92
2023-05-24T03:06:16.760Z,8.88
2023-05-24T03:08:43.528Z,8.83
2023-05-24T03:11:10.028Z,8.79
2023-05-24T03:13:36.614Z,8.77
2023-05-24T03:16:03.315Z,8.73
2023-05-24T03:18:30.155Z,8.77
2023-05-24T03:20:56.867Z,8.74
2023-05-24T03:23:23.456Z,8.69
2023-05-24T03:25:50.120Z,8.67
2023-05-24T03:28:16.627Z,8.70
2023-05-24T03:30:43.657Z,8.69
2023-05-24T03:33:10.636Z,8.68
2023-05-24T03:35:37.134Z,8.64
2023-05-24T03:38:03.812Z,8.67
2023-05-24T03:40:32.594Z,8.70
2023-05-24T03:43:04.355Z,8.68
2023-05-24T03:45:38.987Z,8.72
2023-05-24T03:48:22.614Z,8.77
2023-05-24T03:50:49.295Z,8.79
2023-05-24T03:53:16.112Z,8.83
2023-05-24T03:55:42.656Z,8.80
2023-05-24T03:58:09.178Z,8.72
2023-05-24T04:00:36.021Z,8.67
2023-05-24T04:03:09.119Z,8.64
2023-05-24T04:05:35.802Z,8.62
2023-05-24T04:08:02.953Z,8.62
2023-05-24T04:10:34.611Z,8.60
2023-05-24T04:13:04.240Z,8.58
2023-05-24T04:15:31.895Z,8.61
2023-05-24T04:17:58.765Z,8.66
2023-05-24T04:20:27.065Z,8.69
2023-05-24T04:23:06.092Z,8.71
2023-05-24T04:25:33.709Z,8.74
2023-05-24T04:28:00.495Z,8.72
2023-05-24T04:30:30.259Z,8.77
2023-05-24T04:33:07.348Z,8.82
2023-05-24T04:35:33.867Z,8.90
2023-05-24T04:38:00.446Z,8.99
2023-05-24T04:40:27.240Z,9.04
2023-05-24T04:45:34.477Z,9.07
2023-05-24T04:48:01.303Z,9.13
2023-05-24T04:50:29.055Z,9.24
2023-05-24T04:52:55.542Z,9.25
2023-05-24T04:55:22.226Z,9.27
2023-05-24T04:57:48.720Z,9.36
2023-05-24T05:00:15.526Z,9.43
2023-05-24T05:02:42.258Z,9.51
2023-05-24T05:05:08.967Z,9.57
2023-05-24T05:07:35.477Z,9.65
2023-05-24T05:10:02.044Z,9.69
2023-05-24T05:12:28.568Z,9.75
2023-05-24T05:14:55.243Z,9.83
2023-05-24T05:17:25.188Z,9.92
2023-05-24T05:19:53.637Z,9.99
2023-05-24T05:22:20.143Z,10.05
2023-05-24T05:24:46.668Z,10.12
2023-05-24T05:27:13.178Z,10.23
2023-05-24T05:29:39.720Z,10.27
2023-05-24T05:32:06.670Z,10.31
2023-05-24T05:34:33.225Z,10.35
2023-05-24T05:37:11.429Z,10.43
2023-05-24T05:39:39.178Z,10.51
2023-05-24T05:42:06.271Z,10.58
2023-05-24T05:44:41.825Z,10.64
2023-05-24T05:47:09.454Z,10.75
2023-05-24T05:49:36.638Z,10.81
2023-05-24T05:52:04.658Z,10.84
2023-05-24T05:54:36.788Z,10.90
2023-05-24T05:57:13.040Z,10.98
2023-05-24T05:59:45.844Z,11.04
2023-05-24T06:02:24.718Z,11.11
2023-05-24T06:04:51.378Z,11.17
2023-05-24T06:07:18.618Z,11.25
2023-05-24T06:09:45.221Z,11.35
2023-05-24T06:12:11.876Z,11.40
2023-05-24T06:14:40.960Z,11.46
2023-05-24T06:17:07.799Z,11.50
2023-05-24T06:19:46.957Z,11.59
2023-05-24T06:22:16.718Z,11.64
2023-05-24T06:24:43.984Z,11.73
2023-05-24T06:27:15.200Z,11.77
2023-05-24T06:29:54.373Z,11.80
2023-05-24T06:36:05.772Z,11.91
2023-05-24T06:38:32.963Z,11.96
2023-05-24T06:40:59.968Z,12.02
2023-05-24T06:43:26.750Z,12.09
2023-05-24T06:45:54.952Z,12.18
2023-05-24T06:48:24.085Z,12.24
2023-05-24T06:51:01.111Z,12.29
2023-05-24T06:53:27.840Z,12.30
2023-05-24T06:55:57.526Z,12.26
2023-05-24T06:58:24.257Z,12.24
2023-05-24T07:00:51.079Z,12.25
2023-05-24T07:03:17.707Z,12.27
2023-05-24T07:05:44.354Z,12.41
2023-05-24T07:08:33.386Z,12.49
2023-05-24T07:10:58.149Z,12.48
2023-05-24T07:13:24.803Z,12.47
2023-05-24T07:15:51.238Z,12.57
2023-05-24T07:18:17.665Z,12.62
2023-05-24T07:20:44.416Z,12.66
2023-05-24T07:23:12.220Z,12.63
2023-05-24T07:25:38.859Z,12.77
2023-05-24T07:30:48.363Z,12.83
2023-05-24T07:37:33.439Z,12.75
2023-05-24T07:40:00.485Z,12.83
2023-05-24T07:42:26.902Z,12.87
2023-05-24T07:45:07.155Z,13.02
2023-05-24T07:47:33.962Z,13.13
2023-05-24T07:50:00.754Z,13.16
2023-05-24T08:00:14.620Z,13.94
2023-05-24T08:02:43.310Z,14.01
2023-05-24T08:05:13.897Z,13.94
2023-05-24T08:07:42.219Z,13.86
2023-05-24T08:10:14.701Z,13.71
2023-05-24T08:12:42.344Z,13.70
2023-05-24T08:15:31.591Z,13.72
2023-05-24T08:17:58.455Z,13.75
2023-05-24T08:20:25.437Z,13.76
2023-05-24T08:22:52.443Z,13.90
2023-05-24T08:32:58.208Z,14.43
2023-05-24T08:35:34.290Z,14.48
2023-05-24T08:38:03.207Z,14.64
2023-05-24T08:40:32.310Z,14.57
2023-05-24T08:43:14.426Z,14.49
2023-05-24T08:49:07.761Z,14.93
2023-05-24T08:51:34.832Z,15.12
2023-05-24T08:54:05.791Z,15.27
2023-05-24T08:56:43.999Z,15.13
2023-05-24T08:59:11.308Z,15.02
2023-05-24T09:01:41.109Z,15.09
2023-05-24T09:04:22.596Z,14.99
2023-05-24T09:06:56.133Z,14.85
2023-05-24T09:09:39.845Z,14.46
2023-05-24T09:12:08.614Z,14.49
2023-05-24T09:14:35.196Z,14.73
2023-05-24T09:17:02.519Z,15.16
2023-05-24T09:19:31.236Z,15.59
2023-05-24T09:21:58.415Z,15.58
2023-05-24T09:24:25.035Z,15.16
2023-05-24T09:26:51.769Z,15.07
2023-05-24T09:29:23.458Z,15.14
2023-05-24T09:32:04.648Z,15.46
2023-05-24T09:34:40.266Z,15.63
2023-05-24T09:37:09.712Z,15.60
2023-05-24T09:39:51.440Z,15.15
2023-05-24T09:42:24.134Z,14.95
2023-05-24T09:45:11.333Z,14.85
2023-05-24T09:47:38.673Z,14.97
2023-05-24T09:50:11.666Z,14.87
2023-05-24T09:52:38.757Z,15.02
2023-05-24T09:55:20.972Z,14.85
2023-05-24T09:58:14.114Z,14.85
2023-05-24T10:01:07.179Z,15.12
2023-05-24T10:04:03.750Z,15.45
2023-05-24T10:09:18.344Z,15.08
2023-05-24T10:11:45.841Z,15.04
2023-05-24T10:14:12.957Z,15.07
2023-05-24T10:17:02.696Z,15.01
2023-05-24T10:19:29.472Z,14.95
2023-05-24T10:21:58.195Z,14.94
2023-05-24T10:24:33.844Z,14.93
2023-05-24T10:27:04.049Z,14.96
2023-05-24T10:30:21.823Z,15.02
2023-05-24T10:32:50.029Z,14.97
2023-05-24T10:35:18.371Z,15.11
2023-05-24T10:37:47.331Z,15.23
2023-05-24T10:40:21.706Z,15.25
2023-05-24T10:46:35.344Z,15.21
2023-05-24T10:57:04.816Z,15.30
2023-05-24T10:59:37.532Z,15.29
2023-05-24T11:02:15.295Z,15.19
2023-05-24T11:04:46.419Z,15.28
2023-05-24T11:07:17.767Z,15.26
2023-05-24T11:09:47.796Z,15.21
2023-05-24T11:12:18.805Z,15.33
2023-05-24T11:14:51.360Z,15.37
2023-05-24T11:17:24.562Z,15.50
2023-05-24T11:20:05.325Z,15.48
2023-05-24T11:22:32.195Z,15.59
2023-05-24T11:25:03.899Z,15.63
2023-05-24T11:27:30.647Z,15.60
2023-05-24T11:29:58.355Z,15.69
2023-05-24T11:32:38.286Z,15.66
2023-05-24T11:40:33.039Z,15.69
2023-05-24T11:43:20.070Z,15.69
2023-05-24T11:45:53.738Z,15.71
2023-05-24T11:48:21.728Z,15.60
2023-05-24T11:50:50.223Z,15.67
2023-05-24T11:53:33.567Z,15.61
2023-05-24T11:56:00.187Z,15.75
2023-05-24T11:58:38.481Z,16.00
2023-05-24T12:01:23.852Z,16.01
2023-05-24T12:04:05.882Z,15.91
2023-05-24T12:06:37.917Z,15.96
2023-05-24T12:09:11.023Z,15.91
2023-05-24T12:11:48.469Z,16.21
2023-05-24T12:14:19.579Z,16.34
2023-05-24T12:16:47.358Z,16.36
2023-05-24T12:19:31.561Z,16.35
2023-05-24T12:22:01.078Z,16.44
2023-05-24T12:24:28.382Z,16.39
2023-05-24T12:27:05.827Z,16.40
2023-05-24T12:29:37.701Z,16.44
2023-05-24T12:32:04.857Z,16.47
2023-05-24T12:34:32.189Z,16.41
2023-05-24T12:37:02.730Z,16.27
2023-05-24T12:39:35.498Z,16.27
2023-05-24T12:42:18.153Z,16.54
2023-05-24T12:44:45.378Z,16.46
2023-05-24T12:47:21.893Z,16.26
2023-05-24T12:49:49.331Z,16.21
2023-05-24T12:52:15.831Z,16.32
2023-05-24T12:54:42.512Z,16.65
2023-05-24T12:57:09.198Z,16.61
2023-05-24T12:59:47.655Z,16.64
2023-05-24T13:02:14.518Z,16.82
2023-05-24T13:04:41.298Z,16.99
2023-05-24T13:09:50.615Z,16.86
2023-05-24T13:12:17.175Z,16.96
2023-05-24T13:14:56.089Z,17.05
2023-05-24T13:17:23.210Z,16.99
2023-05-24T13:19:49.880Z,16.87
2023-05-24T13:27:37.862Z,16.64
2023-05-24T13:30:05.855Z,16.70
2023-05-24T13:35:15.006Z,16.79
2023-05-24T13:37:47.634Z,16.90
2023-05-24T13:40:14.502Z,16.93
2023-05-24T13:42:41.057Z,16.76
2023-05-24T13:45:08.254Z,16.60
2023-05-24T13:47:40.336Z,16.65
2023-05-24T13:50:07.733Z,16.48
2023-05-24T13:52:35.018Z,16.48
2023-05-24T13:55:04.439Z,16.73
2023-05-24T13:57:51.296Z,16.60
2023-05-24T14:00:28.196Z,16.65
2023-05-24T14:02:58.072Z,16.57
2023-05-24T14:05:42.006Z,16.50
2023-05-24T14:08:08.631Z,16.54
2023-05-24T14:10:37.053Z,16.61
2023-05-24T14:15:38.004Z,17.15
2023-05-24T14:18:08.229Z,17.25
2023-05-24T14:20:40.396Z,17.29
2023-05-24T14:23:08.423Z,17.29
2023-05-24T14:25:35.081Z,17.05
2023-05-24T14:28:03.514Z,16.90
2023-05-24T14:30:32.227Z,16.77
2023-05-24T14:32:59.228Z,16.71
2023-05-24T14:35:26.426Z,16.72
2023-05-24T14:37:53.794Z,16.66
2023-05-24T14:40:23.219Z,16.75
2023-05-24T14:42:49.835Z,16.82
2023-05-24T14:54:52.099Z,16.52
2023-05-24T14:57:21.951Z,16.81
2023-05-24T14:59:48.881Z,17.10
2023-05-24T15:02:15.661Z,17.46
2023-05-24T15:04:42.233Z,17.44
2023-05-24T15:07:10.948Z,17.36
2023-05-24T15:09:37.535Z,17.45
2023-05-24T15:12:05.184Z,17.65
2023-05-24T15:14:31.846Z,17.72
2023-05-24T15:17:08.635Z,17.88
2023-05-24T15:19:35.350Z,18.05
2023-05-24T15:22:01.929Z,18.28
2023-05-24T15:24:28.377Z,18.21
2023-05-24T15:27:03.369Z,18.30
2023-05-24T15:29:30.095Z,18.34
2023-05-24T15:31:58.667Z,18.44
2023-05-24T15:34:51.041Z,18.06
2023-05-24T15:37:19.650Z,18.17
2023-05-24T15:40:02.623Z,18.38
2023-05-24T15:42:30.646Z,17.90
2023-05-24T15:44:57.482Z,17.78
2023-05-24T15:48:04.407Z,17.79
2023-05-24T15:50:49.351Z,17.58
2023-05-24T15:53:21.566Z,17.31
2023-05-24T15:55:48.563Z,17.37
2023-05-24T15:58:30.922Z,17.36
2023-05-24T16:00:57.595Z,17.38
2023-05-24T16:03:24.291Z,17.23
2023-05-24T16:05:52.958Z,17.28
2023-05-24T16:08:19.927Z,17.12
2023-05-24T16:10:46.726Z,17.08
2023-05-24T16:13:13.435Z,16.85
2023-05-24T16:15:44.864Z,16.75
2023-05-24T16:18:12.905Z,16.69
2023-05-24T16:24:54.591Z,16.71
2023-05-24T16:31:04.204Z,16.22
2023-05-24T16:33:31.003Z,16.07
2023-05-24T16:35:58.695Z,16.13
2023-05-24T16:38:26.565Z,15.97
2023-05-24T16:40:54.145Z,16.10
2023-05-24T16:43:22.878Z,16.00
2023-05-24T16:46:12.505Z,15.85
2023-05-24T17:16:55.238Z,15.73
2023-05-24T17:19:27.549Z,15.80
2023-05-24T17:22:07.199Z,15.89
2023-05-24T17:24:59.561Z,15.78
2023-05-24T17:27:29.380Z,15.68
2023-05-24T17:29:56.377Z,15.57
2023-05-24T17:32:46.010Z,15.40
2023-05-24T17:35:17.206Z,15.47
2023-05-24T17:38:35.987Z,15.40
2023-05-24T17:40:49.291Z,15.35
2023-05-24T17:43:16.336Z,15.35
2023-05-24T17:45:48.848Z,15.37
2023-05-24T17:48:19.162Z,15.23
2023-05-24T17:50:46.206Z,15.31
2023-05-24T17:54:01.524Z,15.24
2023-05-24T17:56:47.319Z,15.02
2023-05-24T17:59:17.117Z,15.05
2023-05-24T18:01:59.027Z,15.12
2023-05-24T18:04:38.369Z,15.12
2023-05-24T18:07:15.230Z,15.12
2023-05-24T18:10:08.154Z,15.10
2023-05-24T18:12:37.780Z,15.06
2023-05-24T18:16:27.273Z,15.03
2023-05-24T18:18:54.582Z,15.05
2023-05-24T18:21:24.972Z,14.96
2023-05-24T18:27:04.259Z,14.79
2023-05-24T18:30:17.438Z,14.84
2023-05-24T18:35:37.918Z,14.91
2023-05-24T18:38:16.425Z,14.84
2023-05-24T18:43:44.282Z,14.75
2023-05-24T18:46:16.815Z,14.80
2023-05-24T18:48:46.588Z,14.79
2023-05-24T18:51:17.745Z,14.79
2023-05-24T18:55:19.685Z,14.81
2023-05-24T18:59:29.455Z,14.92
2023-05-24T19:04:39.143Z,14.78
2023-05-24T19:07:18.284Z,14.66
2023-05-24T19:10:38.903Z,14.62
2023-05-24T19:13:08.635Z,14.56
2023-05-24T19:23:27.251Z,14.40
2023-05-24T19:26:06.238Z,14.43
2023-05-24T19:28:50.638Z,14.42
2023-05-24T19:31:18.998Z,14.37
2023-05-24T19:34:00.100Z,14.35
2023-05-24T19:36:40.741Z,14.36
2023-05-24T19:39:15.761Z,14.41
2023-05-24T19:44:30.260Z,14.26
2023-05-24T19:46:57.061Z,14.15
2023-05-24T19:49:23.894Z,14.16
2023-05-24T19:51:52.042Z,14.13
2023-05-24T19:54:18.769Z,14.12
2023-05-24T19:56:49.834Z,14.13
2023-05-24T19:59:17.189Z,14.04
2023-05-24T20:01:46.869Z,13.99
2023-05-24T20:04:16.443Z,13.90
2023-05-24T20:06:45.405Z,13.92
2023-05-24T20:09:24.656Z,13.90
2023-05-24T20:11:51.509Z,13.90
2023-05-24T20:14:24.263Z,13.85
2023-05-24T20:17:15.691Z,13.90
2023-05-24T20:20:20.081Z,13.80
2023-05-24T20:32:50.988Z,13.60
2023-05-24T20:35:35.920Z,13.51
2023-05-24T20:38:24.690Z,13.51
2023-05-24T20:41:43.005Z,13.56
2023-05-24T20:44:24.241Z,13.48
2023-05-24T20:46:51.138Z,13.37
2023-05-24T20:49:17.846Z,13.31
2023-05-24T20:51:53.634Z,13.34
2023-05-24T20:54:20.450Z,13.32
2023-05-24T21:02:03.787Z,13.23
2023-05-24T21:04:30.648Z,13.15
2023-05-24T21:07:11.536Z,13.10
2023-05-24T21:09:38.011Z,13.14
2023-05-24T21:12:07.160Z,13.16
2023-05-24T21:14:46.315Z,13.16
2023-05-24T21:17:43.263Z,13.20
2023-05-24T21:20:00.285Z,13.14
2023-05-24T21:22:43.861Z,13.17
2023-05-24T21:25:28.994Z,13.10
2023-05-24T21:31:42.621Z,13.00
2023-05-24T21:34:09.124Z,12.90
2023-05-24T21:36:49.363Z,12.89
2023-05-24T21:39:16.205Z,12.88
2023-05-24T21:42:02.314Z,12.87
2023-05-24T21:44:29.105Z,12.83
2023-05-24T21:46:56.197Z,12.83
2023-05-24T21:49:38.390Z,12.92
2023-05-24T21:52:05.361Z,12.91
2023-05-24T21:54:50.360Z,12.77
2023-05-24T21:57:16.952Z,12.76
2023-05-24T21:59:56.296Z,12.81
2023-05-24T22:02:45.443Z,12.73
2023-05-24T22:05:10.000Z,12.68
2023-05-24T22:07:51.806Z,12.56
2023-05-24T22:10:18.590Z,12.52
2023-05-24T22:12:46.282Z,12.60
2023-05-24T22:15:18.790Z,12.67
2023-05-24T22:17:51.435Z,12.64
2023-05-24T22:20:19.385Z,12.59
2023-05-24T22:23:01.432Z,12.46
2023-05-24T22:25:28.251Z,12.44
2023-05-24T22:28:13.757Z,12.52
2023-05-24T22:30:59.080Z,12.53
2023-05-24T22:33:25.703Z,12.55
2023-05-24T22:35:52.215Z,12.49
2023-05-24T22:38:36.084Z,12.51
2023-05-24T22:41:02.770Z,12.50
2023-05-24T22:43:29.477Z,12.42
2023-05-24T22:46:16.510Z,12.38
2023-05-24T22:48:43.152Z,12.32
2023-05-24T22:51:17.244Z,12.35
2023-05-24T22:53:43.900Z,12.36
2023-05-24T22:56:10.832Z,12.34
2023-05-24T22:58:49.834Z,12.29
2023-05-24T23:01:19.548Z,12.22
2023-05-24T23:04:20.411Z,12.21
2023-05-24T23:06:48.960Z,12.23
2023-05-24T23:09:17.627Z,12.19
2023-05-24T23:12:01.998Z,12.18
2023-05-24T23:14:46.613Z,12.17
2023-05-24T23:17:14.124Z,12.15
2023-05-24T23:19:59.587Z,12.14
2023-05-24T23:22:26.488Z,12.11
2023-05-24T23:25:55.689Z,12.07
2023-05-24T23:27:41.367Z,12.01
2023-05-24T23:30:08.465Z,12.03
2023-05-24T23:33:21.567Z,12.01
2023-05-24T23:35:57.546Z,11.82
2023-05-24T23:38:24.362Z,11.79
2023-05-24T23:47:26.914Z,11.71
2023-05-24T23:50:22.372Z,11.67
2023-05-24T23:53:09.364Z,11.52
2023-05-24T23:55:35.931Z,11.62
2023-05-24T23:58:02.648Z,11.65
